createdAt,value
2022-09-11T00:00:57.490Z,19.11
2022-09-11T00:03:30.167Z,18.21
2022-09-11T00:05:57.978Z,20.81
2022-09-11T00:08:32.957Z,20.44
2022-09-11T00:11:04.574Z,20.34
2022-09-11T00:13:35.593Z,20.35
2022-09-11T00:16:07.181Z,18.49
2022-09-11T00:18:36.119Z,20.37
2022-09-11T00:21:04.520Z,20.35
2022-09-11T00:23:32.657Z,21.00
2022-09-11T00:26:02.507Z,19.77
2022-09-11T00:28:43.242Z,21.00
2022-09-11T00:31:19.266Z,20.99
2022-09-11T00:34:04.475Z,20.35
2022-09-11T00:36:32.648Z,20.28
2022-09-11T00:39:01.238Z,19.74
2022-09-11T00:41:33.556Z,20.51
2022-09-11T00:44:06.307Z,19.83
2022-09-11T00:46:37.605Z,18.87
2022-09-11T00:49:11.634Z,21.09
2022-09-11T00:51:41.327Z,19.98
2022-09-11T00:54:10.035Z,21.11
2022-09-11T00:56:38.010Z,18.25
2022-09-11T00:59:07.361Z,20.88
2022-09-11T01:01:35.245Z,19.67
2022-09-11T01:04:04.155Z,20.12
2022-09-11T01:06:32.115Z,19.54
2022-09-11T01:09:00.341Z,19.87
2022-09-11T01:14:09.194Z,20.85
2022-09-11T01:16:39.611Z,21.05
2022-09-11T01:19:13.898Z,21.22
2022-09-11T01:22:06.930Z,21.26
2022-09-11T01:24:54.706Z,20.94
2022-09-11T01:27:44.579Z,21.27
2022-09-11T01:30:13.235Z,21.24
2022-09-11T01:32:48.772Z,21.13
2022-09-11T01:35:18.362Z,21.26
2022-09-11T01:37:51.861Z,21.25
2022-09-11T01:40:21.248Z,21.24
2022-09-11T01:42:50.425Z,21.25
2022-09-11T01:45:18.273Z,21.30
2022-09-11T01:47:46.614Z,20.89
2022-09-11T01:50:15.092Z,21.31
2022-09-11T01:52:48.022Z,21.17
2022-09-11T01:55:18.147Z,21.27
2022-09-11T01:57:48.998Z,21.16
2022-09-11T02:00:17.935Z,21.29
2022-09-11T02:02:46.401Z,21.35
2022-09-11T02:05:16.707Z,21.35
2022-09-11T02:07:46.429Z,21.19
2022-09-11T02:10:17.305Z,21.18
2022-09-11T02:12:46.237Z,21.38
2022-09-11T02:15:16.110Z,21.39
2022-09-11T02:17:48.907Z,21.39
2022-09-11T02:20:17.641Z,21.26
2022-09-11T02:22:45.226Z,21.32
2022-09-11T02:25:14.627Z,21.41
2022-09-11T02:27:42.217Z,21.43
2022-09-11T02:30:12.614Z,21.42
2022-09-11T02:32:40.876Z,21.44
2022-09-11T02:35:10.232Z,21.43
2022-09-11T02:37:48.309Z,21.45
2022-09-11T02:40:38.910Z,21.43
2022-09-11T02:43:17.834Z,21.45
2022-09-11T02:45:48.972Z,21.48
2022-09-11T02:48:25.924Z,21.48
2022-09-11T02:50:59.289Z,21.34
2022-09-11T02:53:30.289Z,21.37
2022-09-11T02:56:00.633Z,21.47
2022-09-11T02:58:29.118Z,21.46
2022-09-11T03:00:57.023Z,21.47
2022-09-11T03:03:24.811Z,21.47
2022-09-11T03:05:52.404Z,21.48
2022-09-11T03:08:21.683Z,21.31
2022-09-11T03:10:49.931Z,21.47
2022-09-11T03:13:17.693Z,21.29
2022-09-11T03:15:48.107Z,21.47
2022-09-11T03:18:15.827Z,21.36
2022-09-11T03:20:45.465Z,21.45
2022-09-11T03:23:13.091Z,21.45
2022-09-11T03:25:42.238Z,21.45
2022-09-11T03:28:09.981Z,21.42
2022-09-11T03:30:37.593Z,21.45
2022-09-11T03:33:07.247Z,21.45
2022-09-11T03:35:35.057Z,21.45
2022-09-11T03:38:02.804Z,19.35
2022-09-11T03:40:30.418Z,21.42
2022-09-11T03:42:59.547Z,21.37
2022-09-11T03:45:27.841Z,21.42
2022-09-11T03:47:55.731Z,21.41
2022-09-11T03:50:23.355Z,21.37
2022-09-11T03:52:51.188Z,21.40
2022-09-11T03:55:18.996Z,21.37
2022-09-11T03:57:47.018Z,21.39
2022-09-11T04:00:16.218Z,21.37
2022-09-11T04:02:43.891Z,21.38
2022-09-11T04:05:14.848Z,21.37
2022-09-11T04:07:42.601Z,21.31
2022-09-11T04:10:10.831Z,21.37
2022-09-11T04:12:38.547Z,21.36
2022-09-11T04:15:07.252Z,21.37
2022-09-11T04:17:36.308Z,21.37
2022-09-11T04:20:04.520Z,21.39
2022-09-11T04:22:32.350Z,21.02
2022-09-11T04:25:00.268Z,21.38
2022-09-11T04:27:27.973Z,21.39
2022-09-11T04:29:55.836Z,21.37
2022-09-11T04:32:23.507Z,21.34
2022-09-11T04:34:52.881Z,21.38
2022-09-11T04:37:21.055Z,21.38
2022-09-11T04:39:49.054Z,21.39
2022-09-11T04:42:16.785Z,21.35
2022-09-11T04:44:44.390Z,21.29
2022-09-11T04:47:12.145Z,21.34
2022-09-11T04:49:40.344Z,21.36
2022-09-11T04:52:09.511Z,21.37
2022-09-11T04:54:37.235Z,21.36
2022-09-11T04:57:05.323Z,21.35
2022-09-11T04:59:33.206Z,21.31
2022-09-11T05:02:00.907Z,21.34
2022-09-11T05:04:28.520Z,21.32
2022-09-11T05:06:56.227Z,21.33
2022-09-11T05:09:26.761Z,21.31
2022-09-11T05:11:54.443Z,21.28
2022-09-11T05:14:22.486Z,21.33
2022-09-11T05:16:52.493Z,21.33
2022-09-11T05:19:20.109Z,21.32
2022-09-11T05:21:49.143Z,21.31
2022-09-11T05:24:16.808Z,21.33
2022-09-11T05:26:45.791Z,20.75
2022-09-11T05:29:14.794Z,21.34
2022-09-11T05:31:42.501Z,21.34
2022-09-11T05:34:10.138Z,21.34
2022-09-11T05:36:37.984Z,21.34
2022-09-11T05:39:06.304Z,20.84
2022-09-11T05:41:33.994Z,21.35
2022-09-11T05:44:03.543Z,21.13
2022-09-11T05:46:31.368Z,21.28
2022-09-11T05:48:59.918Z,21.29
2022-09-11T05:51:27.666Z,21.33
2022-09-11T05:53:55.490Z,21.31
2022-09-11T05:56:24.354Z,21.32
2022-09-11T05:58:52.631Z,21.35
2022-09-11T06:01:22.896Z,21.35
2022-09-11T06:03:50.866Z,21.38
2022-09-11T06:06:19.474Z,21.41
2022-09-11T06:08:47.323Z,21.45
2022-09-11T06:11:15.966Z,21.49
2022-09-11T06:13:45.162Z,21.54
2022-09-11T06:16:18.076Z,21.58
2022-09-11T06:18:49.016Z,21.59
2022-09-11T06:21:20.040Z,21.61
2022-09-11T06:23:47.927Z,21.62
2022-09-11T06:26:16.519Z,21.64
2022-09-11T06:28:44.145Z,21.62
2022-09-11T06:31:16.359Z,21.63
2022-09-11T06:33:44.211Z,21.64
2022-09-11T06:36:15.434Z,21.68
2022-09-11T06:38:44.310Z,21.75
2022-09-11T06:41:14.127Z,21.83
2022-09-11T06:43:42.073Z,21.81
2022-09-11T06:46:13.026Z,21.99
2022-09-11T06:48:40.762Z,22.04
2022-09-11T06:51:11.294Z,22.11
2022-09-11T06:53:40.875Z,22.17
2022-09-11T06:56:09.140Z,22.08
2022-09-11T06:58:36.863Z,21.97
2022-09-11T07:01:05.064Z,22.29
2022-09-11T07:03:32.856Z,22.36
2022-09-11T07:06:01.888Z,22.21
2022-09-11T07:08:29.575Z,22.18
2022-09-11T07:13:37.474Z,22.58
2022-09-11T07:16:06.625Z,22.29
2022-09-11T07:18:36.281Z,22.60
2022-09-11T07:21:06.341Z,22.49
2022-09-11T07:23:34.663Z,22.56
2022-09-11T07:26:03.809Z,22.44
2022-09-11T07:28:31.832Z,22.55
2022-09-11T07:31:10.573Z,22.59
2022-09-11T07:33:38.663Z,22.62
2022-09-11T07:36:11.795Z,22.65
2022-09-11T07:38:40.705Z,22.75
2022-09-11T07:41:08.787Z,22.88
2022-09-11T07:43:36.715Z,23.04
2022-09-11T07:46:05.022Z,23.12
2022-09-11T07:48:34.014Z,23.11
2022-09-11T07:51:03.442Z,23.11
2022-09-11T07:53:33.118Z,22.97
2022-09-11T07:56:03.538Z,23.03
2022-09-11T07:58:34.557Z,23.01
2022-09-11T08:01:05.315Z,22.97
2022-09-11T08:03:34.560Z,22.95
2022-09-11T08:06:02.636Z,22.92
2022-09-11T08:08:30.315Z,22.70
2022-09-11T08:10:58.213Z,22.99
2022-09-11T08:13:26.187Z,23.05
2022-09-11T08:15:53.787Z,23.11
2022-09-11T08:18:21.515Z,23.03
2022-09-11T08:20:50.577Z,23.35
2022-09-11T08:23:18.264Z,23.67
2022-09-11T08:25:45.978Z,24.33
2022-09-11T08:28:13.720Z,25.04
2022-09-11T08:30:41.569Z,25.61
2022-09-11T08:33:09.445Z,26.68
2022-09-11T08:35:37.611Z,27.16
2022-09-11T08:38:06.573Z,27.27
2022-09-11T08:40:34.221Z,27.24
2022-09-11T08:43:03.149Z,26.99
2022-09-11T08:45:32.333Z,26.39
2022-09-11T08:48:00.745Z,26.36
2022-09-11T08:50:29.162Z,26.00
2022-09-11T08:52:56.914Z,25.55
2022-09-11T08:55:33.835Z,25.42
2022-09-11T08:58:05.336Z,25.01
2022-09-11T09:00:34.107Z,24.74
2022-09-11T09:03:13.118Z,24.89
2022-09-11T09:05:44.269Z,24.76
2022-09-11T09:08:19.800Z,24.62
2022-09-11T09:10:52.025Z,24.50
2022-09-11T09:13:32.084Z,24.40
2022-09-11T09:16:03.731Z,24.40
2022-09-11T09:18:32.934Z,24.39
2022-09-11T09:21:01.938Z,24.38
2022-09-11T09:23:32.115Z,24.34
2022-09-11T09:26:01.072Z,24.39
2022-09-11T09:28:33.611Z,24.45
2022-09-11T09:31:04.470Z,24.31
2022-09-11T09:33:32.790Z,24.71
2022-09-11T09:36:03.594Z,24.54
2022-09-11T09:38:31.417Z,24.62
2022-09-11T09:41:09.950Z,24.46
2022-09-11T09:43:41.075Z,24.62
2022-09-11T09:46:15.250Z,24.26
2022-09-11T09:48:43.487Z,24.46
2022-09-11T09:51:13.629Z,24.39
2022-09-11T09:53:42.051Z,24.28
2022-09-11T09:56:11.815Z,24.41
2022-09-11T09:58:41.801Z,24.31
2022-09-11T10:01:18.857Z,24.49
2022-09-11T10:03:46.803Z,24.39
2022-09-11T10:06:15.098Z,24.77
2022-09-11T10:08:44.446Z,24.98
2022-09-11T10:11:13.428Z,25.29
2022-09-11T10:13:42.731Z,26.13
2022-09-11T10:16:20.217Z,26.76
2022-09-11T10:18:47.854Z,27.35
2022-09-11T10:21:24.062Z,27.69
2022-09-11T10:23:53.554Z,28.17
2022-09-11T10:26:25.742Z,29.34
2022-09-11T10:28:53.898Z,30.60
2022-09-11T10:31:22.812Z,32.11
2022-09-11T10:33:52.780Z,32.78
2022-09-11T10:36:23.599Z,32.58
2022-09-11T10:38:51.447Z,32.46
2022-09-11T10:41:21.597Z,31.92
2022-09-11T10:43:53.966Z,31.33
2022-09-11T10:46:39.182Z,31.91
2022-09-11T10:49:20.547Z,32.43
2022-09-11T10:52:02.212Z,32.31
2022-09-11T10:55:00.094Z,32.07
2022-09-11T10:57:29.551Z,31.97
2022-09-11T11:00:03.989Z,31.52
2022-09-11T11:02:33.085Z,31.07
2022-09-11T11:05:02.694Z,30.86
2022-09-11T11:07:42.676Z,31.33
2022-09-11T11:10:18.029Z,33.14
2022-09-11T11:12:53.711Z,35.56
2022-09-11T11:15:30.945Z,37.65
2022-09-11T11:18:11.849Z,39.47
2022-09-11T11:20:44.633Z,40.64
2022-09-11T11:23:19.543Z,41.83
2022-09-11T11:25:51.172Z,42.99
2022-09-11T11:28:24.849Z,42.83
2022-09-11T11:31:00.830Z,42.98
2022-09-11T11:33:42.183Z,43.07
2022-09-11T11:36:11.710Z,42.06
2022-09-11T11:38:41.273Z,40.45
2022-09-11T11:41:10.914Z,39.11
2022-09-11T11:43:40.874Z,37.62
2022-09-11T11:46:13.407Z,36.09
2022-09-11T11:48:44.199Z,35.16
2022-09-11T11:51:13.080Z,34.25
2022-09-11T11:53:43.880Z,33.47
2022-09-11T11:56:15.717Z,32.77
2022-09-11T11:58:48.118Z,32.13
2022-09-11T12:01:20.109Z,31.81
2022-09-11T12:03:50.468Z,31.80
2022-09-11T12:06:18.145Z,31.71
2022-09-11T12:08:46.085Z,31.88
2022-09-11T12:11:15.112Z,32.15
2022-09-11T12:13:43.661Z,31.95
2022-09-11T12:16:14.836Z,32.09
2022-09-11T12:19:01.018Z,32.05
2022-09-11T12:21:43.244Z,32.05
2022-09-11T12:24:13.766Z,32.03
2022-09-11T12:26:41.390Z,32.16
2022-09-11T12:29:51.636Z,32.22
2022-09-11T12:32:24.404Z,32.03
2022-09-11T12:35:01.006Z,31.84
2022-09-11T12:37:32.921Z,31.66
2022-09-11T12:40:03.605Z,31.41
2022-09-11T12:42:47.625Z,31.10
2022-09-11T12:45:31.236Z,31.15
2022-09-11T12:48:05.119Z,30.98
2022-09-11T12:50:34.476Z,30.84
2022-09-11T12:53:03.331Z,30.57
2022-09-11T12:55:39.532Z,30.09
2022-09-11T12:58:08.387Z,30.13
2022-09-11T13:00:39.103Z,29.76
2022-09-11T13:03:07.273Z,29.88
2022-09-11T13:05:38.001Z,29.68
2022-09-11T13:08:07.660Z,29.72
2022-09-11T13:15:44.617Z,30.07
2022-09-11T13:18:26.471Z,30.12
2022-09-11T13:21:03.403Z,30.02
2022-09-11T13:23:31.089Z,30.01
2022-09-11T13:25:58.936Z,30.01
2022-09-11T13:28:27.491Z,29.90
2022-09-11T13:31:00.399Z,30.07
2022-09-11T13:33:29.792Z,30.11
2022-09-11T13:35:59.786Z,30.21
2022-09-11T13:38:29.943Z,30.26
2022-09-11T13:40:58.514Z,30.20
2022-09-11T13:43:29.625Z,30.11
2022-09-11T13:46:27.899Z,29.90
2022-09-11T13:48:58.907Z,29.64
2022-09-11T13:51:31.224Z,29.42
2022-09-11T13:54:09.051Z,29.23
2022-09-11T13:56:45.337Z,28.97
2022-09-11T13:59:38.379Z,28.78
2022-09-11T14:02:08.528Z,28.48
2022-09-11T14:04:40.360Z,28.25
2022-09-11T14:07:19.393Z,28.06
2022-09-11T14:09:48.669Z,27.86
2022-09-11T14:12:16.255Z,27.72
2022-09-11T14:14:46.977Z,27.62
2022-09-11T14:17:17.169Z,27.51
2022-09-11T14:19:45.332Z,27.36
2022-09-11T14:22:18.045Z,27.33
2022-09-11T14:24:56.776Z,26.91
2022-09-11T14:27:42.826Z,27.22
2022-09-11T14:30:34.777Z,27.07
2022-09-11T14:33:23.640Z,27.23
2022-09-11T14:35:51.425Z,26.98
2022-09-11T14:38:21.538Z,27.18
2022-09-11T14:40:51.682Z,27.20
2022-09-11T14:43:22.520Z,27.08
2022-09-11T14:45:50.521Z,27.25
2022-09-11T14:48:18.817Z,27.34
2022-09-11T14:50:50.552Z,27.30
2022-09-11T14:53:23.141Z,27.43
2022-09-11T14:55:51.256Z,27.49
2022-09-11T14:58:19.787Z,27.52
2022-09-11T15:00:47.868Z,27.47
2022-09-11T15:03:15.656Z,27.52
2022-09-11T15:05:43.626Z,27.56
2022-09-11T15:08:11.410Z,27.53
2022-09-11T15:10:41.390Z,27.44
2022-09-11T15:13:10.171Z,27.42
2022-09-11T15:15:37.886Z,27.34
2022-09-11T15:18:05.932Z,27.36
2022-09-11T15:20:33.531Z,27.33
2022-09-11T15:23:01.303Z,27.28
2022-09-11T15:25:28.979Z,27.23
2022-09-11T15:27:58.586Z,27.17
2022-09-11T15:30:27.728Z,27.06
2022-09-11T15:32:55.680Z,27.00
2022-09-11T15:35:24.075Z,26.92
2022-09-11T15:37:54.160Z,26.84
2022-09-11T15:40:22.007Z,26.78
2022-09-11T15:42:50.630Z,26.68
2022-09-11T15:45:20.206Z,26.54
2022-09-11T15:47:47.989Z,26.53
2022-09-11T15:50:19.943Z,26.48
2022-09-11T15:52:47.994Z,26.45
2022-09-11T15:55:15.869Z,26.26
2022-09-11T15:57:44.132Z,26.42
2022-09-11T16:00:14.472Z,26.41
2022-09-11T16:02:43.481Z,26.36
2022-09-11T16:05:11.262Z,26.34
2022-09-11T16:07:39.493Z,26.28
2022-09-11T16:10:07.943Z,26.19
2022-09-11T16:12:35.661Z,26.25
2022-09-11T16:15:04.443Z,26.20
2022-09-11T16:17:32.593Z,26.15
2022-09-11T16:20:01.717Z,26.07
2022-09-11T16:22:31.287Z,26.01
2022-09-11T16:25:00.085Z,25.98
2022-09-11T16:27:27.927Z,25.99
2022-09-11T16:32:43.398Z,26.00
2022-09-11T16:35:13.823Z,25.98
2022-09-11T16:37:41.572Z,25.95
2022-09-11T16:40:10.418Z,25.90
2022-09-11T16:42:38.257Z,25.75
2022-09-11T16:45:06.874Z,25.84
2022-09-11T16:47:34.788Z,25.80
2022-09-11T16:50:07.417Z,25.70
2022-09-11T16:52:37.098Z,25.63
2022-09-11T16:55:05.743Z,25.56
2022-09-11T16:57:33.513Z,25.38
2022-09-11T17:00:01.149Z,25.44
2022-09-11T17:02:28.781Z,25.41
2022-09-11T17:04:56.517Z,25.34
2022-09-11T17:07:24.954Z,25.30
2022-09-11T17:09:54.606Z,25.23
2022-09-11T17:12:22.270Z,25.18
2022-09-11T17:14:50.384Z,24.94
2022-09-11T17:17:19.091Z,25.05
2022-09-11T17:19:46.793Z,24.67
2022-09-11T17:22:15.154Z,24.87
2022-09-11T17:24:43.017Z,24.86
2022-09-11T17:27:12.249Z,24.78
2022-09-11T17:29:44.266Z,24.67
2022-09-11T17:32:31.176Z,24.61
2022-09-11T17:34:59.382Z,24.47
2022-09-11T17:37:27.407Z,24.39
2022-09-11T17:39:55.573Z,24.33
2022-09-11T17:42:24.775Z,24.22
2022-09-11T17:44:52.500Z,24.13
2022-09-11T17:47:20.257Z,24.04
2022-09-11T17:49:49.941Z,23.93
2022-09-11T17:52:19.011Z,23.82
2022-09-11T17:54:46.610Z,23.73
2022-09-11T17:57:16.484Z,23.63
2022-09-11T17:59:45.586Z,23.49
2022-09-11T18:02:13.849Z,23.36
2022-09-11T18:04:52.980Z,23.27
2022-09-11T18:07:20.663Z,23.13
2022-09-11T18:09:49.061Z,22.95
2022-09-11T18:12:18.765Z,22.96
2022-09-11T18:14:47.834Z,22.88
2022-09-11T18:17:15.561Z,22.84
2022-09-11T18:19:44.159Z,22.78
2022-09-11T18:22:11.913Z,22.71
2022-09-11T18:24:40.101Z,22.65
2022-09-11T18:27:09.793Z,22.57
2022-09-11T18:29:40.673Z,22.47
2022-09-11T18:32:10.313Z,22.40
2022-09-11T18:34:38.225Z,22.31
2022-09-11T18:37:07.163Z,22.27
2022-09-11T18:39:34.889Z,22.15
2022-09-11T18:42:04.425Z,22.13
2022-09-11T18:44:32.083Z,22.07
2022-09-11T18:46:59.816Z,21.98
2022-09-11T18:49:29.142Z,21.92
2022-09-11T18:51:56.865Z,21.72
2022-09-11T18:54:29.921Z,21.82
2022-09-11T18:56:57.707Z,21.80
2022-09-11T18:59:25.661Z,21.44
2022-09-11T19:01:55.134Z,21.68
2022-09-11T19:04:24.189Z,21.44
2022-09-11T19:06:53.409Z,21.59
2022-09-11T19:09:21.219Z,21.50
2022-09-11T19:14:24.727Z,21.47
2022-09-11T19:16:53.788Z,21.42
2022-09-11T19:19:21.681Z,21.22
2022-09-11T19:21:49.311Z,21.33
2022-09-11T19:24:19.100Z,21.23
2022-09-11T19:26:46.775Z,21.25
2022-09-11T19:29:16.407Z,21.21
2022-09-11T19:31:44.483Z,21.11
2022-09-11T19:34:12.761Z,21.13
2022-09-11T19:36:40.968Z,21.09
2022-09-11T19:39:08.693Z,21.03
2022-09-11T19:41:38.550Z,21.00
2022-09-11T19:44:07.024Z,21.00
2022-09-11T19:46:35.006Z,20.70
2022-09-11T19:49:03.791Z,20.89
2022-09-11T19:51:32.431Z,20.92
2022-09-11T19:54:00.854Z,20.90
2022-09-11T19:56:28.609Z,20.79
2022-09-11T19:58:57.708Z,20.81
2022-09-11T20:01:26.758Z,20.79
2022-09-11T20:03:54.976Z,20.75
2022-09-11T20:06:24.311Z,20.68
2022-09-11T20:09:03.134Z,20.64
2022-09-11T20:11:40.340Z,20.61
2022-09-11T20:14:10.292Z,20.56
2022-09-11T20:16:38.156Z,20.53
2022-09-11T20:19:06.590Z,20.48
2022-09-11T20:21:35.314Z,20.45
2022-09-11T20:24:04.723Z,20.39
2022-09-11T20:26:32.372Z,20.37
2022-09-11T20:29:00.743Z,20.31
2022-09-11T20:31:31.459Z,20.31
2022-09-11T20:34:00.642Z,20.27
2022-09-11T20:36:29.954Z,20.18
2022-09-11T20:39:00.640Z,20.05
2022-09-11T20:41:29.658Z,20.18
2022-09-11T20:43:57.717Z,20.17
2022-09-11T20:46:25.420Z,20.14
2022-09-11T20:48:56.791Z,20.10
2022-09-11T20:51:27.757Z,20.04
2022-09-11T20:53:55.752Z,20.06
2022-09-11T20:56:24.441Z,20.02
2022-09-11T20:58:52.465Z,19.61
2022-09-11T21:01:22.104Z,19.90
2022-09-11T21:03:50.592Z,19.88
2022-09-11T21:06:24.775Z,19.88
2022-09-11T21:08:52.664Z,19.84
2022-09-11T21:11:20.390Z,19.83
2022-09-11T21:13:48.581Z,19.61
2022-09-11T21:16:16.883Z,19.81
2022-09-11T21:18:46.533Z,19.78
2022-09-11T21:21:14.121Z,19.74
2022-09-11T21:23:43.278Z,19.73
2022-09-11T21:26:10.998Z,19.70
2022-09-11T21:28:38.833Z,19.68
2022-09-11T21:31:06.718Z,19.67
2022-09-11T21:33:34.510Z,19.47
2022-09-11T21:36:02.487Z,19.64
2022-09-11T21:38:30.345Z,19.60
2022-09-11T21:41:00.711Z,19.50
2022-09-11T21:43:28.376Z,19.54
2022-09-11T21:45:56.134Z,19.51
2022-09-11T21:48:23.846Z,19.46
2022-09-11T21:50:51.507Z,19.45
2022-09-11T21:53:19.158Z,19.26
2022-09-11T21:55:47.803Z,19.31
2022-09-11T21:58:17.629Z,19.39
2022-09-11T22:00:47.690Z,19.36
2022-09-11T22:03:16.108Z,19.33
2022-09-11T22:05:44.203Z,19.04
2022-09-11T22:08:12.202Z,19.26
2022-09-11T22:10:42.449Z,19.23
2022-09-11T22:13:11.032Z,19.21
2022-09-11T22:15:41.764Z,19.16
2022-09-11T22:18:09.630Z,19.20
2022-09-11T22:20:37.571Z,19.17
2022-09-11T22:23:05.472Z,19.12
2022-09-11T22:25:33.751Z,19.12
2022-09-11T22:28:01.461Z,19.10
2022-09-11T22:30:30.435Z,18.78
2022-09-11T22:32:59.747Z,19.05
2022-09-11T22:35:27.700Z,19.04
2022-09-11T22:37:55.383Z,19.01
2022-09-11T22:40:23.067Z,19.00
2022-09-11T22:42:50.813Z,18.99
2022-09-11T22:45:18.477Z,18.96
2022-09-11T22:47:46.193Z,18.92
2022-09-11T22:50:15.574Z,18.89
2022-09-11T22:52:43.293Z,18.87
2022-09-11T22:55:11.010Z,18.81
2022-09-11T22:57:38.946Z,18.46
2022-09-11T23:00:07.862Z,18.77
2022-09-11T23:02:35.965Z,18.74
2022-09-11T23:05:21.193Z,18.72
2022-09-11T23:07:50.792Z,18.69
2022-09-11T23:10:23.322Z,18.70
2022-09-11T23:12:51.133Z,18.68
2022-09-11T23:15:19.198Z,18.65
2022-09-11T23:17:47.793Z,18.64
2022-09-11T23:20:15.452Z,18.62
2022-09-11T23:22:43.097Z,18.58
2022-09-11T23:25:12.470Z,18.55
2022-09-11T23:27:41.480Z,18.51
2022-09-11T23:30:09.887Z,18.46
2022-09-11T23:32:41.674Z,18.44
2022-09-11T23:35:10.707Z,18.41
2022-09-11T23:37:41.134Z,18.43
2022-09-11T23:40:12.717Z,18.40
2022-09-11T23:42:40.466Z,18.39
2022-09-11T23:45:09.389Z,18.38
2022-09-11T23:47:37.122Z,18.36
2022-09-11T23:50:04.852Z,18.34
2022-09-11T23:52:32.748Z,18.32
2022-09-11T23:55:00.607Z,18.26
2022-09-11T23:57:29.749Z,18.21
2022-09-11T23:59:57.381Z,18.17
